Time;durP1;ratioP1;P1;durP2;ratioP2;P2;SDS_P1;SDS_P2;PMS_P1;PMS_P2;Temp;Humidity;BMP_temperature;BMP_pressure;BME280_temperature;BME280_humidity;BME280_pressure;Samples;Min_cycle;Max_cycle;Signal;HPM_P1;HPM_P2
2023/06/29 00:01:04;;;;;;;2.60;1.23;;;21.60;98.30;;;;;;4976500;28;20481;-36
2023/06/29 00:03:31;;;;;;;2.17;1.55;;;21.60;98.30;;;;;;4977184;28;20030;-37
2023/06/29 00:05:58;;;;;;;7.10;2.50;;;21.60;98.30;;;;;;4976059;28;20030;-36
2023/06/29 00:08:28;;;;;;;3.92;1.70;;;21.60;98.30;;;;;;4975722;28;20490;-37
2023/06/29 00:10:55;;;;;;;4.15;1.73;;;21.60;98.30;;;;;;4975842;28;20129;-39
2023/06/29 00:13:22;;;;;;;2.78;1.65;;;21.60;98.30;;;;;;4975992;28;20505;-37
2023/06/29 00:15:48;;;;;;;2.47;1.60;;;21.60;98.40;;;;;;4976533;28;20094;-38
2023/06/29 00:18:14;;;;;;;2.05;1.75;;;21.60;98.30;;;;;;4975895;28;20023;-36
2023/06/29 00:20:44;;;;;;;2.30;1.45;;;21.50;98.30;;;;;;4975573;28;20058;-37
2023/06/29 00:23:10;;;;;;;2.92;1.67;;;21.50;98.30;;;;;;4976065;28;20479;-37
2023/06/29 00:25:35;;;;;;;3.95;1.70;;;21.60;98.40;;;;;;4975589;28;20045;-37
2023/06/29 00:28:02;;;;;;;2.95;1.58;;;21.60;98.40;;;;;;4975456;28;20031;-36
2023/06/29 00:30:27;;;;;;;3.55;1.70;;;21.60;98.40;;;;;;4974164;28;20530;-37
2023/06/29 00:32:53;;;;;;;1.80;1.50;;;21.60;98.40;;;;;;4975707;28;20046;-37
2023/06/29 00:35:19;;;;;;;2.95;1.70;;;21.50;98.40;;;;;;4975266;28;20390;-37
2023/06/29 00:37:44;;;;;;;2.33;1.48;;;21.50;98.40;;;;;;4977067;28;20037;-36
2023/06/29 00:40:11;;;;;;;3.80;1.70;;;21.50;98.40;;;;;;4975597;28;20027;-38
2023/06/29 00:42:37;;;;;;;1.85;1.30;;;21.50;98.40;;;;;;4974013;28;20077;-37
2023/06/29 00:45:06;;;;;;;1.80;1.50;;;21.50;98.40;;;;;;4975126;28;20446;-37
2023/06/29 00:47:32;;;;;;;2.58;1.65;;;21.50;98.40;;;;;;4975900;28;20482;-38
2023/06/29 00:49:59;;;;;;;2.10;1.50;;;21.50;98.40;;;;;;4974854;28;20022;-38
2023/06/29 00:52:25;;;;;;;4.88;1.50;;;21.50;98.40;;;;;;4974850;28;20050;-39
2023/06/29 00:54:53;;;;;;;2.10;1.50;;;21.50;98.40;;;;;;4975548;28;20034;-38
2023/06/29 00:57:19;;;;;;;3.28;1.60;;;21.50;98.40;;;;;;4975815;28;20023;-39
2023/06/29 00:59:45;;;;;;;3.38;1.50;;;21.50;98.40;;;;;;4974611;28;20038;-36
2023/06/29 01:02:11;;;;;;;3.22;1.45;;;21.50;98.40;;;;;;4975673;28;20035;-36
2023/06/29 01:04:37;;;;;;;2.75;1.20;;;21.50;98.40;;;;;;4974760;28;20105;-37
2023/06/29 01:07:18;;;;;;;1.75;1.40;;;21.50;98.40;;;;;;4974849;28;20034;-37
2023/06/29 01:09:46;;;;;;;2.58;1.80;;;21.50;98.40;;;;;;4974637;28;20257;-35
2023/06/29 01:12:13;;;;;;;2.83;1.30;;;21.50;98.40;;;;;;4975813;28;20094;-38
2023/06/29 01:14:41;;;;;;;1.77;1.42;;;21.50;98.40;;;;;;4974540;28;20023;-37
2023/06/29 01:17:15;;;;;;;4.88;1.70;;;21.50;98.40;;;;;;4974460;28;20440;-37
2023/06/29 01:19:45;;;;;;;2.55;1.48;;;21.50;98.40;;;;;;4974852;28;20367;-37
2023/06/29 01:22:20;;;;;;;3.00;1.38;;;21.50;98.40;;;;;;4974374;28;20039;-37
2023/06/29 01:24:47;;;;;;;1.73;1.60;;;21.50;98.40;;;;;;4975655;28;20080;-36
2023/06/29 01:27:13;;;;;;;4.72;1.50;;;21.50;98.40;;;;;;4974370;28;20111;-37
2023/06/29 01:29:39;;;;;;;3.80;1.75;;;21.50;98.40;;;;;;4974859;28;20426;-37
2023/06/29 01:32:07;;;;;;;3.10;1.70;;;21.50;98.40;;;;;;4975658;28;20054;-37
2023/06/29 01:34:35;;;;;;;2.55;1.63;;;21.50;98.40;;;;;;4975424;28;20038;-38
2023/06/29 01:37:09;;;;;;;2.03;1.50;;;21.50;98.40;;;;;;4975974;28;20406;-35
2023/06/29 01:39:49;;;;;;;2.40;1.30;;;21.50;98.40;;;;;;4973921;28;20026;-36
2023/06/29 01:42:16;;;;;;;1.92;1.63;;;21.50;98.40;;;;;;4974908;28;20053;-37
2023/06/29 01:44:42;;;;;;;3.08;1.40;;;21.40;98.40;;;;;;4973978;28;20037;-37
2023/06/29 01:47:11;;;;;;;6.18;1.60;;;21.50;98.40;;;;;;4974198;28;20109;-37
2023/06/29 01:49:36;;;;;;;2.60;1.70;;;21.40;98.70;;;;;;4974646;28;20019;-37
2023/06/29 01:52:05;;;;;;;3.05;1.70;;;21.50;98.40;;;;;;4974335;28;20123;-38
2023/06/29 01:54:31;;;;;;;3.08;1.52;;;21.40;98.40;;;;;;4973422;28;20027;-37
2023/06/29 01:56:57;;;;;;;3.42;1.65;;;21.40;98.40;;;;;;4974211;28;20368;-37
2023/06/29 01:59:23;;;;;;;2.17;1.30;;;21.40;98.40;;;;;;4972733;28;20031;-38
2023/06/29 02:01:48;;;;;;;2.15;1.63;;;21.40;98.40;;;;;;4973573;28;20490;-37
2023/06/29 02:04:14;;;;;;;3.63;1.38;;;21.40;98.40;;;;;;4973680;28;20398;-36
2023/06/29 02:06:40;;;;;;;2.45;1.38;;;21.40;98.40;;;;;;4973717;28;20058;-37
2023/06/29 02:09:05;;;;;;;3.05;1.50;;;21.40;98.40;;;;;;4973445;28;20118;-36
2023/06/29 02:11:31;;;;;;;2.22;1.52;;;21.40;98.40;;;;;;4975396;28;20026;-38
2023/06/29 02:13:57;;;;;;;2.20;1.52;;;21.40;98.40;;;;;;4974035;28;20417;-37
2023/06/29 02:16:22;;;;;;;3.67;1.30;;;21.40;98.40;;;;;;4974008;28;20471;-37
2023/06/29 02:18:48;;;;;;;3.00;1.40;;;21.40;98.40;;;;;;4973315;28;20038;-36
2023/06/29 02:21:14;;;;;;;3.10;1.65;;;21.40;98.40;;;;;;4973972;28;20038;-37
2023/06/29 02:23:39;;;;;;;2.15;1.40;;;21.40;98.40;;;;;;4973428;28;20019;-37
2023/06/29 02:26:05;;;;;;;3.15;1.40;;;21.40;98.40;;;;;;4973446;28;20034;-38
2023/06/29 02:28:31;;;;;;;3.35;1.35;;;21.40;98.40;;;;;;4973143;28;20390;-37
2023/06/29 02:30:56;;;;;;;2.65;1.40;;;21.40;98.40;;;;;;4973055;28;20027;-37
2023/06/29 02:33:22;;;;;;;2.63;1.50;;;21.40;98.40;;;;;;4973309;28;20026;-36
2023/06/29 02:35:47;;;;;;;3.65;1.48;;;21.40;98.40;;;;;;4974001;28;20086;-36
2023/06/29 02:38:13;;;;;;;2.53;1.70;;;21.40;98.70;;;;;;4973757;28;20035;-37
2023/06/29 02:40:39;;;;;;;5.15;1.90;;;21.40;98.40;;;;;;4972697;28;20031;-38
2023/06/29 02:43:05;;;;;;;2.55;1.25;;;21.40;98.40;;;;;;4973090;28;20049;-37
2023/06/29 02:45:30;;;;;;;2.22;1.40;;;21.40;98.40;;;;;;4973138;28;20042;-37
2023/06/29 02:47:56;;;;;;;3.13;1.33;;;21.40;98.40;;;;;;4972895;28;20066;-38
2023/06/29 02:50:22;;;;;;;2.53;1.48;;;21.40;98.40;;;;;;4972723;28;20030;-37
2023/06/29 02:52:47;;;;;;;1.67;1.40;;;21.40;98.40;;;;;;4973439;28;20473;-37
2023/06/29 02:55:13;;;;;;;2.35;1.58;;;21.30;98.40;;;;;;4972873;28;20043;-37
2023/06/29 02:57:39;;;;;;;1.65;1.27;;;21.30;98.40;;;;;;4972827;28;20105;-36
2023/06/29 03:00:05;;;;;;;2.42;1.40;;;21.30;98.40;;;;;;4973132;28;20402;-36
2023/06/29 03:02:31;;;;;;;2.95;1.70;;;21.30;98.40;;;;;;4972627;28;20401;-37
2023/06/29 03:04:57;;;;;;;3.53;1.70;;;21.30;98.40;;;;;;4972640;28;20023;-37
2023/06/29 03:07:22;;;;;;;4.75;1.35;;;21.30;98.40;;;;;;4972495;28;20027;-37
2023/06/29 03:09:48;;;;;;;3.75;1.40;;;21.30;98.40;;;;;;4972579;28;20437;-35
2023/06/29 03:12:13;;;;;;;3.40;1.75;;;21.30;98.40;;;;;;4972602;28;20039;-37
2023/06/29 03:14:39;;;;;;;3.17;1.50;;;21.30;98.40;;;;;;4972501;28;20130;-36
2023/06/29 03:17:05;;;;;;;3.40;1.77;;;21.30;98.40;;;;;;4972554;28;20493;-38
2023/06/29 03:19:30;;;;;;;3.63;1.70;;;21.30;98.30;;;;;;4973231;28;20457;-37
2023/06/29 03:21:56;;;;;;;4.15;1.60;;;21.30;98.40;;;;;;4973020;28;20118;-39
2023/06/29 03:24:22;;;;;;;2.20;1.60;;;21.30;98.40;;;;;;4973392;28;20023;-37
2023/06/29 03:26:47;;;;;;;2.67;1.45;;;21.30;98.40;;;;;;4972911;28;20110;-37
2023/06/29 03:29:13;;;;;;;2.40;1.60;;;21.30;98.40;;;;;;4973239;28;20105;-37
2023/06/29 03:31:38;;;;;;;3.30;1.52;;;21.30;98.40;;;;;;4972716;28;20035;-37
2023/06/29 03:34:04;;;;;;;3.35;1.88;;;21.30;98.40;;;;;;4972385;28;20061;-37
2023/06/29 03:36:30;;;;;;;3.15;1.50;;;21.30;98.30;;;;;;4972842;28;20565;-36
2023/06/29 03:38:55;;;;;;;2.30;1.42;;;21.30;98.40;;;;;;4972129;28;20026;-36
2023/06/29 03:41:21;;;;;;;4.32;1.80;;;21.30;98.40;;;;;;4972155;28;20110;-35
2023/06/29 03:43:46;;;;;;;2.35;1.35;;;21.30;98.30;;;;;;4972193;28;20069;-37
2023/06/29 03:46:12;;;;;;;2.25;1.85;;;21.30;98.40;;;;;;4972271;28;20037;-37
2023/06/29 03:48:38;;;;;;;2.88;1.58;;;21.30;98.40;;;;;;4972236;28;20089;-37
2023/06/29 03:51:04;;;;;;;3.78;1.85;;;21.30;98.40;;;;;;4972071;28;20485;-37
2023/06/29 03:53:30;;;;;;;2.80;1.60;;;21.30;98.40;;;;;;4973393;28;20406;-36
2023/06/29 03:55:55;;;;;;;2.83;1.50;;;21.30;98.40;;;;;;4972174;28;20162;-38
2023/06/29 03:58:21;;;;;;;2.45;1.55;;;21.30;98.40;;;;;;4972160;28;20054;-37
2023/06/29 04:00:47;;;;;;;3.03;1.40;;;21.30;98.40;;;;;;4971839;28;20034;-37
2023/06/29 04:03:12;;;;;;;2.60;1.45;;;21.20;98.30;;;;;;4973020;28;20027;-37
2023/06/29 04:05:38;;;;;;;1.88;1.40;;;21.30;98.40;;;;;;4972121;28;20483;-37
2023/06/29 04:08:05;;;;;;;3.03;1.85;;;21.20;98.40;;;;;;4972185;28;20023;-37
2023/06/29 04:10:34;;;;;;;4.18;1.80;;;21.20;98.40;;;;;;4972313;28;20026;-38
2023/06/29 04:13:01;;;;;;;3.53;1.70;;;21.20;98.30;;;;;;4972051;28;20089;-37
2023/06/29 04:15:27;;;;;;;2.55;1.50;;;21.20;98.30;;;;;;4973540;28;20106;-36
2023/06/29 04:17:53;;;;;;;2.75;1.40;;;21.20;98.30;;;;;;4974767;28;20031;-37
2023/06/29 04:20:18;;;;;;;1.73;1.23;;;21.30;98.30;;;;;;4976786;28;20110;-37
2023/06/29 04:22:44;;;;;;;2.38;1.50;;;21.20;98.40;;;;;;4976585;28;20038;-36
2023/06/29 04:25:10;;;;;;;3.53;1.55;;;21.20;98.40;;;;;;4975872;28;20031;-37
2023/06/29 04:27:35;;;;;;;2.28;1.45;;;21.20;98.40;;;;;;4975485;28;20026;-38
2023/06/29 04:30:03;;;;;;;1.90;1.50;;;21.20;98.30;;;;;;4975536;28;20026;-37
2023/06/29 04:32:29;;;;;;;2.83;1.48;;;21.20;98.30;;;;;;4975418;28;20026;-37
2023/06/29 04:34:55;;;;;;;3.42;1.70;;;21.20;98.30;;;;;;4975966;28;20027;-37
2023/06/29 04:37:20;;;;;;;2.88;1.42;;;21.20;98.30;;;;;;4975126;28;20077;-39
2023/06/29 04:39:46;;;;;;;2.90;1.92;;;21.20;98.30;;;;;;4976063;28;20035;-37
2023/06/29 04:42:17;;;;;;;4.60;1.60;;;21.20;98.30;;;;;;4976612;28;20042;-36
2023/06/29 04:44:44;;;;;;;3.13;1.45;;;21.20;98.30;;;;;;4976021;28;20026;-37
2023/06/29 04:47:10;;;;;;;4.63;1.42;;;21.20;98.40;;;;;;4975787;28;20023;-37
2023/06/29 04:49:40;;;;;;;3.40;1.67;;;21.20;98.40;;;;;;4975118;28;20153;-37
2023/06/29 04:52:10;;;;;;;2.90;1.40;;;21.20;98.30;;;;;;4975850;28;20034;-35
2023/06/29 04:54:36;;;;;;;3.10;1.67;;;21.20;98.40;;;;;;4975051;28;20029;-37
2023/06/29 04:57:01;;;;;;;3.33;1.58;;;21.20;98.30;;;;;;4975283;28;20022;-39
2023/06/29 04:59:28;;;;;;;4.00;1.77;;;21.20;98.30;;;;;;4975025;28;20378;-37
2023/06/29 05:01:54;;;;;;;5.22;1.90;;;21.20;98.40;;;;;;4975317;28;20062;-37
2023/06/29 05:04:19;;;;;;;5.22;1.73;;;21.20;98.30;;;;;;4977050;28;20058;-37
2023/06/29 05:06:45;;;;;;;2.03;1.35;;;21.20;98.40;;;;;;4974833;28;20022;-37
2023/06/29 05:09:12;;;;;;;4.10;1.70;;;21.20;98.40;;;;;;4974650;28;20026;-38
2023/06/29 05:11:38;;;;;;;6.03;1.70;;;21.20;98.40;;;;;;4974951;28;20072;-37
2023/06/29 05:14:04;;;;;;;5.95;1.48;;;21.20;98.40;;;;;;4974613;28;20561;-39
2023/06/29 05:16:31;;;;;;;3.80;1.70;;;21.20;98.40;;;;;;4974653;28;20034;-36
2023/06/29 05:18:57;;;;;;;2.95;1.42;;;21.20;98.40;;;;;;4974370;28;20389;-36
2023/06/29 05:21:23;;;;;;;2.38;1.65;;;21.20;98.40;;;;;;4974537;28;21970;-37
2023/06/29 05:23:48;;;;;;;1.95;1.48;;;21.20;98.40;;;;;;4975692;28;20476;-37
2023/06/29 05:26:14;;;;;;;1.88;1.40;;;21.20;98.40;;;;;;4974407;28;20062;-37
2023/06/29 05:28:39;;;;;;;2.45;1.55;;;21.20;98.40;;;;;;4974021;28;20027;-37
2023/06/29 05:31:05;;;;;;;4.82;1.85;;;21.20;98.40;;;;;;4974157;28;20335;-36
2023/06/29 05:33:31;;;;;;;4.95;2.20;;;21.20;98.70;;;;;;4974518;28;20018;-39
2023/06/29 05:35:56;;;;;;;3.92;2.20;;;21.00;99.10;;;;;;4974702;28;20529;-39
2023/06/29 05:38:22;;;;;;;5.00;2.22;;;20.80;99.40;;;;;;4974599;28;20035;-37
2023/06/29 05:40:47;;;;;;;5.97;2.13;;;20.70;99.60;;;;;;4973977;28;20027;-37
2023/06/29 05:43:13;;;;;;;4.68;2.25;;;20.70;99.60;;;;;;4973951;28;20105;-39
2023/06/29 05:45:39;;;;;;;6.25;2.25;;;20.80;99.50;;;;;;4974019;28;20145;-40
2023/06/29 05:48:05;;;;;;;7.30;2.05;;;20.80;99.50;;;;;;4973903;28;20027;-39
2023/06/29 05:50:31;;;;;;;4.57;2.03;;;20.90;99.50;;;;;;4973791;28;20023;-38
2023/06/29 05:52:56;;;;;;;4.78;2.20;;;20.90;99.40;;;;;;4974545;28;20030;-36
2023/06/29 05:55:23;;;;;;;3.25;2.10;;;20.90;99.30;;;;;;4974137;28;20478;-39
2023/06/29 05:57:49;;;;;;;5.85;2.45;;;21.00;99.30;;;;;;4973815;28;20030;-38
2023/06/29 06:00:15;;;;;;;5.18;2.30;;;21.00;99.30;;;;;;4973783;28;20033;-38
2023/06/29 06:02:41;;;;;;;5.43;2.38;;;21.00;99.30;;;;;;4974622;28;20046;-38
2023/06/29 06:05:07;;;;;;;8.18;2.17;;;21.00;99.30;;;;;;4973858;28;20027;-38
2023/06/29 06:07:33;;;;;;;3.83;2.00;;;21.10;99.30;;;;;;4973750;28;20030;-37
2023/06/29 06:09:59;;;;;;;3.58;2.08;;;21.10;99.30;;;;;;4973877;28;20026;-39
2023/06/29 06:12:24;;;;;;;3.95;1.83;;;21.10;99.20;;;;;;4973678;28;20035;-38
2023/06/29 06:14:50;;;;;;;5.53;2.10;;;21.10;99.20;;;;;;4973487;28;20085;-39
2023/06/29 06:17:16;;;;;;;6.15;1.83;;;21.10;99.20;;;;;;4973325;28;20433;-39
2023/06/29 06:19:42;;;;;;;5.18;2.00;;;21.10;99.20;;;;;;4972201;28;20035;-39
2023/06/29 06:22:08;;;;;;;6.43;2.20;;;21.10;99.20;;;;;;4973318;28;20027;-39
2023/06/29 06:24:34;;;;;;;4.15;2.00;;;21.10;99.20;;;;;;4973347;28;20030;-37
2023/06/29 06:27:00;;;;;;;3.67;1.88;;;21.10;99.10;;;;;;4973280;28;20387;-38
2023/06/29 06:29:26;;;;;;;6.38;2.20;;;21.10;99.10;;;;;;4973110;28;20046;-38
2023/06/29 06:31:51;;;;;;;5.93;2.25;;;21.20;99.10;;;;;;4973083;28;20066;-38
2023/06/29 06:34:17;;;;;;;3.70;2.08;;;21.20;99.10;;;;;;4974683;28;20034;-39
2023/06/29 06:36:43;;;;;;;3.30;1.70;;;21.20;99.10;;;;;;4973410;28;20044;-39
2023/06/29 06:39:08;;;;;;;4.40;1.85;;;21.20;99.10;;;;;;4973680;28;20058;-39
2023/06/29 06:41:34;;;;;;;3.92;1.90;;;21.20;99.00;;;;;;4972965;28;20026;-38
2023/06/29 06:43:59;;;;;;;3.22;1.73;;;21.20;99.00;;;;;;4973031;28;20030;-39
2023/06/29 06:46:25;;;;;;;5.75;2.05;;;21.20;99.00;;;;;;4973411;28;20456;-39
2023/06/29 06:48:51;;;;;;;3.10;1.92;;;21.30;99.00;;;;;;4973127;28;20029;-39
2023/06/29 06:51:17;;;;;;;3.33;1.90;;;21.20;98.90;;;;;;4973778;28;20458;-39
2023/06/29 06:53:44;;;;;;;2.30;1.63;;;21.30;98.90;;;;;;4973647;28;20049;-39
2023/06/29 06:56:09;;;;;;;4.88;1.52;;;21.30;98.90;;;;;;4972852;28;20521;-37
2023/06/29 06:58:35;;;;;;;4.45;1.80;;;21.30;98.90;;;;;;4973342;28;20030;-38
2023/06/29 07:01:01;;;;;;;5.63;2.10;;;21.30;98.90;;;;;;4972711;28;20069;-37
2023/06/29 07:03:26;;;;;;;2.63;1.58;;;21.30;98.90;;;;;;4972552;28;20034;-38
2023/06/29 07:05:55;;;;;;;4.00;1.70;;;21.30;98.90;;;;;;4972785;28;20025;-39
2023/06/29 07:08:21;;;;;;;4.47;1.52;;;21.30;98.90;;;;;;4972657;28;20023;-38
2023/06/29 07:10:47;;;;;;;2.45;1.70;;;21.30;98.90;;;;;;4972426;28;20401;-39
2023/06/29 07:13:13;;;;;;;2.45;1.77;;;21.30;98.80;;;;;;4972624;28;20027;-40
2023/06/29 07:15:39;;;;;;;3.03;1.77;;;21.30;98.80;;;;;;4972982;28;20513;-38
2023/06/29 07:18:04;;;;;;;3.25;1.60;;;21.30;98.80;;;;;;4972727;28;20066;-38
2023/06/29 07:20:30;;;;;;;2.83;1.80;;;21.30;98.70;;;;;;4972475;28;20065;-37
2023/06/29 07:22:55;;;;;;;2.83;1.80;;;21.40;98.70;;;;;;4972409;28;20031;-39
2023/06/29 07:25:21;;;;;;;3.28;1.70;;;21.40;98.70;;;;;;4973774;28;20101;-39
2023/06/29 07:27:47;;;;;;;2.35;1.55;;;21.40;98.70;;;;;;4972705;28;20034;-39
2023/06/29 07:30:13;;;;;;;5.13;1.55;;;21.40;98.70;;;;;;4972500;28;20041;-39
2023/06/29 07:32:39;;;;;;;7.65;1.58;;;21.40;97.20;;;;;;4973967;28;20510;-37
2023/06/29 07:35:05;;;;;;;6.07;1.70;;;21.40;97.50;;;;;;4972285;28;20145;-40
2023/06/29 07:37:31;;;;;;;5.78;2.10;;;21.40;97.50;;;;;;4972396;28;20125;-37
2023/06/29 07:39:57;;;;;;;7.18;2.03;;;21.40;97.50;;;;;;4972560;28;20030;-37
2023/06/29 07:42:22;;;;;;;6.63;1.80;;;21.40;97.50;;;;;;4972281;28;20472;-38
2023/06/29 07:44:48;;;;;;;6.40;1.70;;;21.40;97.60;;;;;;4972026;28;20086;-38
2023/06/29 07:47:14;;;;;;;4.07;1.55;;;21.40;97.60;;;;;;4972768;28;20027;-38
2023/06/29 07:49:39;;;;;;;2.92;1.55;;;21.40;97.60;;;;;;4972052;28;20402;-37
2023/06/29 07:52:05;;;;;;;2.55;1.40;;;21.40;97.70;;;;;;4972690;28;20027;-37
2023/06/29 07:54:31;;;;;;;4.45;1.42;;;21.40;97.70;;;;;;4976006;28;20027;-39
2023/06/29 07:56:56;;;;;;;2.58;1.52;;;21.40;97.70;;;;;;4976074;28;20538;-38
2023/06/29 07:59:22;;;;;;;2.65;1.48;;;21.40;97.70;;;;;;4975661;28;20031;-38
2023/06/29 08:01:48;;;;;;;3.33;1.60;;;21.50;97.80;;;;;;4975789;28;20516;-40
2023/06/29 08:04:14;;;;;;;4.38;1.70;;;21.50;97.80;;;;;;4976755;28;20030;-38
2023/06/29 08:06:43;;;;;;;3.50;1.70;;;21.50;97.80;;;;;;4977158;28;20114;-38
2023/06/29 08:09:12;;;;;;;3.20;1.65;;;21.50;97.80;;;;;;4977492;28;20394;-37
2023/06/29 08:11:38;;;;;;;1.88;1.23;;;21.50;97.80;;;;;;4976131;28;20084;-40
2023/06/29 08:14:04;;;;;;;2.58;1.52;;;21.50;97.80;;;;;;4975563;28;20509;-39
2023/06/29 08:16:30;;;;;;;2.60;1.33;;;21.50;97.90;;;;;;4976285;28;20027;-39
2023/06/29 08:18:56;;;;;;;3.03;1.38;;;21.50;97.90;;;;;;4975938;28;20030;-38
2023/06/29 08:21:22;;;;;;;2.92;1.45;;;21.50;97.90;;;;;;4976194;28;20177;-38
2023/06/29 08:23:49;;;;;;;2.63;1.40;;;21.50;97.90;;;;;;4975950;28;20106;-40
2023/06/29 08:26:15;;;;;;;2.45;1.55;;;21.50;97.90;;;;;;4975616;28;20019;-39
2023/06/29 08:28:41;;;;;;;2.72;1.40;;;21.50;97.90;;;;;;4976975;28;20023;-39
2023/06/29 08:31:07;;;;;;;2.60;1.33;;;21.40;97.90;;;;;;4975370;28;20513;-39
2023/06/29 08:33:32;;;;;;;2.85;1.52;;;21.50;97.90;;;;;;4975761;28;20482;-40
2023/06/29 08:35:58;;;;;;;2.72;1.20;;;21.50;97.90;;;;;;4976128;28;20038;-39
2023/06/29 08:38:24;;;;;;;4.10;1.55;;;21.50;97.90;;;;;;4976357;28;20054;-38
2023/06/29 08:40:50;;;;;;;2.58;1.45;;;21.50;97.90;;;;;;4975096;28;20039;-39
2023/06/29 08:43:17;;;;;;;3.15;1.33;;;21.50;97.90;;;;;;4975384;28;20035;-38
2023/06/29 08:45:44;;;;;;;3.13;1.45;;;21.50;97.90;;;;;;4975495;28;20019;-38
2023/06/29 08:48:11;;;;;;;1.65;1.10;;;21.50;97.90;;;;;;4975115;28;20030;-37
2023/06/29 08:50:43;;;;;;;1.98;1.20;;;21.50;97.90;;;;;;4975687;28;20027;-38
2023/06/29 08:53:10;;;;;;;2.92;1.60;;;21.50;97.90;;;;;;4975328;28;20030;-38
2023/06/29 08:55:36;;;;;;;2.03;1.30;;;21.50;97.90;;;;;;4974918;28;20023;-38
2023/06/29 08:58:02;;;;;;;3.00;1.50;;;21.50;97.90;;;;;;4975046;28;20334;-37
2023/06/29 09:00:29;;;;;;;3.25;1.52;;;21.50;97.90;;;;;;4973413;28;20471;-40
2023/06/29 09:02:55;;;;;;;1.65;1.27;;;21.50;97.90;;;;;;4974729;28;20027;-39
2023/06/29 09:05:21;;;;;;;1.85;1.35;;;21.50;97.90;;;;;;4974189;28;20054;-39
2023/06/29 09:07:47;;;;;;;1.33;1.10;;;21.50;97.90;;;;;;4974798;28;20031;-38
2023/06/29 09:10:13;;;;;;;1.73;1.15;;;21.50;97.90;;;;;;4974473;28;20023;-39
2023/06/29 09:12:39;;;;;;;2.08;1.20;;;21.50;97.90;;;;;;4976167;28;20055;-39
2023/06/29 09:15:12;;;;;;;2.53;1.30;;;21.50;97.90;;;;;;4975185;28;20048;-39
2023/06/29 09:17:44;;;;;;;2.58;1.30;;;21.50;97.90;;;;;;4974906;28;20027;-39
2023/06/29 09:20:13;;;;;;;2.00;1.20;;;21.50;98.20;;;;;;4974485;28;20502;-38
2023/06/29 09:22:40;;;;;;;2.40;1.20;;;21.50;97.90;;;;;;4975461;28;20030;-39
2023/06/29 09:25:07;;;;;;;2.95;1.20;;;21.60;97.90;;;;;;4974764;28;20030;-38
2023/06/29 09:27:34;;;;;;;2.33;0.95;;;21.50;97.90;;;;;;4974491;28;20027;-38
2023/06/29 09:30:02;;;;;;;2.88;1.30;;;21.50;97.90;;;;;;4974601;28;20022;-40
2023/06/29 09:32:35;;;;;;;2.13;1.20;;;21.60;97.90;;;;;;4975088;28;20066;-39
2023/06/29 09:35:08;;;;;;;1.38;1.13;;;21.60;97.90;;;;;;4974362;28;20056;-39
2023/06/29 09:37:35;;;;;;;3.55;1.10;;;21.60;97.90;;;;;;4975319;28;20023;-40
2023/06/29 09:40:12;;;;;;;1.85;1.20;;;21.60;97.90;;;;;;4974910;28;20031;-39
2023/06/29 09:42:39;;;;;;;3.17;1.10;;;21.60;97.90;;;;;;4975423;28;20034;-37
2023/06/29 09:45:11;;;;;;;1.98;1.10;;;21.60;98.00;;;;;;4988906;28;20450;-39
2023/06/29 09:47:40;;;;;;;1.25;1.02;;;21.60;98.00;;;;;;4975211;28;20482;-38
2023/06/29 09:50:17;;;;;;;1.38;1.15;;;21.60;98.00;;;;;;4973840;28;20019;-38
2023/06/29 09:52:47;;;;;;;4.07;1.10;;;21.60;98.00;;;;;;4974000;28;20023;-38
2023/06/29 09:55:16;;;;;;;2.15;1.20;;;21.60;98.00;;;;;;4973892;28;20367;-37
2023/06/29 09:57:50;;;;;;;2.33;1.33;;;21.60;98.00;;;;;;4974568;28;20019;-39
2023/06/29 10:00:16;;;;;;;1.80;1.17;;;21.60;98.00;;;;;;4974798;28;20023;-39
2023/06/29 10:02:41;;;;;;;1.30;0.98;;;21.60;97.90;;;;;;4973581;28;20062;-38
2023/06/29 10:05:10;;;;;;;2.42;1.30;;;21.60;98.00;;;;;;4973637;28;20491;-38
2023/06/29 10:07:37;;;;;;;1.90;1.10;;;21.60;97.90;;;;;;4973679;28;20027;-38
2023/06/29 10:10:07;;;;;;;1.65;1.10;;;21.70;98.00;;;;;;4973549;28;20721;-40
2023/06/29 10:12:33;;;;;;;1.75;0.90;;;21.60;98.00;;;;;;4973597;28;20026;-38
2023/06/29 10:15:08;;;;;;;2.17;1.33;;;21.70;98.00;;;;;;4973194;28;20027;-37
2023/06/29 10:18:07;;;;;;;1.80;1.20;;;21.70;98.00;;;;;;4973629;28;20026;-39
2023/06/29 10:20:36;;;;;;;2.25;1.10;;;21.60;97.90;;;;;;4972113;28;20100;-39
2023/06/29 10:23:05;;;;;;;2.22;1.08;;;21.70;98.00;;;;;;4973220;28;20019;-38
2023/06/29 10:25:35;;;;;;;2.15;1.20;;;21.70;98.00;;;;;;4974007;28;20117;-37
2023/06/29 10:28:03;;;;;;;1.52;1.00;;;21.70;98.30;;;;;;4974768;28;20494;-38
2023/06/29 10:30:28;;;;;;;1.27;1.13;;;21.70;98.00;;;;;;4972546;28;20034;-39
2023/06/29 10:32:54;;;;;;;1.70;1.10;;;21.70;98.00;;;;;;4973122;28;20038;-38
2023/06/29 10:35:24;;;;;;;2.17;0.98;;;21.70;98.00;;;;;;4973205;28;20494;-39
2023/06/29 10:37:55;;;;;;;1.73;1.10;;;21.70;98.00;;;;;;4973113;28;20034;-37
2023/06/29 10:40:25;;;;;;;2.42;1.30;;;21.70;98.00;;;;;;4973042;28;20081;-39
2023/06/29 10:42:53;;;;;;;2.15;1.20;;;21.70;98.30;;;;;;4973110;28;20438;-36
2023/06/29 10:45:19;;;;;;;1.85;1.20;;;21.70;98.00;;;;;;4973397;28;20023;-38
2023/06/29 10:48:13;;;;;;;1.80;1.10;;;21.70;98.00;;;;;;4973040;28;20446;-37
2023/06/29 10:50:44;;;;;;;1.67;1.20;;;21.70;98.00;;;;;;4972776;28;20394;-38
2023/06/29 10:53:17;;;;;;;1.42;1.02;;;21.70;98.00;;;;;;4973529;28;20102;-40
2023/06/29 10:55:55;;;;;;;2.70;1.15;;;21.70;98.00;;;;;;4972888;28;20030;-38
2023/06/29 10:58:35;;;;;;;1.50;0.95;;;21.80;98.10;;;;;;4972742;28;20019;-39
2023/06/29 11:01:01;;;;;;;1.40;0.93;;;21.80;98.10;;;;;;4972508;28;20093;-38
2023/06/29 11:03:27;;;;;;;1.95;1.35;;;21.80;98.10;;;;;;4972591;28;20034;-38
2023/06/29 11:05:54;;;;;;;2.30;1.17;;;21.70;98.00;;;;;;4973401;28;20119;-39
2023/06/29 11:08:21;;;;;;;1.92;1.40;;;21.80;98.10;;;;;;4972092;28;20482;-39
2023/06/29 11:10:47;;;;;;;3.28;1.45;;;21.80;98.10;;;;;;4972801;28;20069;-38
2023/06/29 11:13:13;;;;;;;2.17;1.10;;;21.80;98.10;;;;;;4973287;28;20039;-40
2023/06/29 11:15:39;;;;;;;2.17;1.27;;;21.80;98.10;;;;;;4972945;28;20446;-39
2023/06/29 11:18:07;;;;;;;2.05;1.08;;;21.80;98.10;;;;;;4973278;28;20053;-39
2023/06/29 11:20:37;;;;;;;2.83;1.30;;;21.80;98.10;;;;;;4973352;28;20034;-38
2023/06/29 11:23:02;;;;;;;1.95;1.30;;;21.80;98.10;;;;;;4973830;28;20027;-39
2023/06/29 11:25:29;;;;;;;1.77;1.27;;;21.80;98.10;;;;;;4972814;28;20106;-38
2023/06/29 11:27:56;;;;;;;1.73;1.30;;;21.80;98.20;;;;;;4971974;28;20027;-37
2023/06/29 11:30:22;;;;;;;1.73;1.17;;;21.80;98.20;;;;;;4972208;28;20034;-40
2023/06/29 11:32:50;;;;;;;3.45;1.40;;;21.80;98.20;;;;;;4972670;28;20100;-39
2023/06/29 11:35:20;;;;;;;2.10;1.35;;;21.80;98.20;;;;;;4972368;28;20031;-39
2023/06/29 11:37:45;;;;;;;2.88;1.10;;;21.80;98.20;;;;;;4972926;28;20027;-38
2023/06/29 11:40:19;;;;;;;3.55;1.23;;;21.80;98.20;;;;;;4971251;28;20030;-39
2023/06/29 11:42:45;;;;;;;3.30;1.27;;;21.80;98.20;;;;;;4972884;28;20026;-39
2023/06/29 11:45:12;;;;;;;2.30;1.48;;;21.80;98.20;;;;;;4972265;28;20038;-39
2023/06/29 11:47:38;;;;;;;1.60;1.30;;;21.80;98.20;;;;;;4972619;28;20023;-41
2023/06/29 11:50:07;;;;;;;2.03;1.45;;;21.80;98.20;;;;;;4972582;28;20035;-37
2023/06/29 11:52:34;;;;;;;1.95;1.60;;;21.80;98.20;;;;;;4972517;28;20114;-40
2023/06/29 11:55:02;;;;;;;2.22;1.52;;;21.80;98.20;;;;;;4972896;28;20438;-40
2023/06/29 11:57:31;;;;;;;3.47;1.33;;;21.80;98.20;;;;;;4972245;28;20023;-40
2023/06/29 11:59:57;;;;;;;2.17;1.30;;;21.80;98.20;;;;;;4972321;28;20486;-40
2023/06/29 12:02:23;;;;;;;2.22;1.35;;;21.80;98.30;;;;;;4972279;28;20042;-39
2023/06/29 12:05:03;;;;;;;4.18;1.30;;;21.80;98.20;;;;;;4973314;28;20031;-39
2023/06/29 12:07:36;;;;;;;2.47;1.42;;;21.80;98.30;;;;;;4972160;28;20034;-38
2023/06/29 12:10:06;;;;;;;2.47;1.48;;;21.80;98.30;;;;;;4971871;28;20034;-38
2023/06/29 12:12:41;;;;;;;6.50;3.50;;;21.80;98.30;;;;;;4972151;28;20055;-38
2023/06/29 12:15:18;;;;;;;5.40;3.20;;;21.90;98.10;;;;;;4972017;28;20026;-39
2023/06/29 12:17:45;;;;;;;7.47;3.40;;;21.90;97.90;;;;;;4972712;28;20023;-38
2023/06/29 12:20:15;;;;;;;6.97;3.50;;;21.80;97.90;;;;;;4973147;28;20027;-38
2023/06/29 12:22:42;;;;;;;7.20;3.38;;;21.90;97.90;;;;;;4971928;28;20097;-39
2023/06/29 12:25:12;;;;;;;7.53;3.38;;;21.90;97.90;;;;;;4972930;28;20398;-37
2023/06/29 12:27:46;;;;;;;7.07;3.10;;;21.90;97.90;;;;;;4972775;28;20030;-36
2023/06/29 12:30:14;;;;;;;8.15;3.33;;;21.90;97.90;;;;;;4971721;28;20027;-39
2023/06/29 12:32:42;;;;;;;5.90;3.25;;;21.80;97.90;;;;;;4972916;28;20146;-38
2023/06/29 12:35:08;;;;;;;7.30;3.38;;;21.90;98.00;;;;;;4971747;28;20033;-38
2023/06/29 12:37:34;;;;;;;5.35;3.00;;;21.90;98.00;;;;;;4972181;28;20121;-39
2023/06/29 12:40:00;;;;;;;4.55;2.83;;;21.90;98.00;;;;;;4975414;28;20078;-40
2023/06/29 12:42:26;;;;;;;7.55;3.00;;;21.90;98.00;;;;;;4975897;28;20026;-38
2023/06/29 12:44:51;;;;;;;4.93;3.05;;;21.90;98.10;;;;;;4974976;28;20019;-40
2023/06/29 12:47:20;;;;;;;5.95;3.00;;;21.90;98.10;;;;;;4974016;28;20038;-37